This is the latest recevied weather packets stored in our database for station/object KF4UQS-14. If no packets are shown the sender has not sent any weather packets the latest 1 day(s).
| Time | Temp. | Humidity | Pressure | Rain* | Wind** | Luminosity | Snow |
|---|---|---|---|---|---|---|---|
| 1778031249 | 20° C | 70% | 1016.4 hPa | 0 mm | - | 0 W/m² | - |
| 1778030944 | 20° C | 70% | 1016.3 hPa | 0 mm | - | 0 W/m² | - |
| 1778030641 | 20.56° C | 69% | 1016.2 hPa | 0 mm | - | 0 W/m² | - |
| 1778030338 | 20.56° C | 69% | 1016.1 hPa | 0 mm | - | 0 W/m² | - |
| 1778030035 | 20.56° C | 69% | 1016.1 hPa | 0 mm | - | 0 W/m² | - |
| 1778029732 | 20.56° C | 68% | 1016.3 hPa | 0 mm | - | 0 W/m² | - |
| 1778029127 | 20.56° C | 68% | 1015.9 hPa | 0 mm | - | 0 W/m² | - |
| 1778028824 | 20.56° C | 67% | 1016 hPa | 0 mm | - | 0 W/m² | - |
| 1778028519 | 20.56° C | 67% | 1016 hPa | 0 mm | - | 0 W/m² | - |
| 1778028218 | 20.56° C | 68% | 1015.8 hPa | 0 mm | - | 0 W/m² | - |
| 1778027610 | 21.11° C | 67% | 1015.6 hPa | 0 mm | - | 0 W/m² | - |
| 1778027003 | 21.11° C | 66% | 1015.8 hPa | 0 mm | - | 0 W/m² | - |
| 1778026396 | 21.67° C | 65% | 1015.8 hPa | 0 mm | - | 0 W/m² | - |
| 1778026093 | 21.67° C | 65% | 1015.6 hPa | 0 mm | - | 1 W/m² | - |
| 1778025791 | 21.67° C | 65% | 1015.3 hPa | 0 mm | - | 1 W/m² | - |
| 1778025487 | 21.67° C | 65% | 1015.3 hPa | 0 mm | - | 2 W/m² | - |
| 1778025185 | 22.22° C | 65% | 1015.1 hPa | 0 mm | - | 4 W/m² | - |
| 1778023974 | 22.78° C | 62% | 1015 hPa | 0 mm | - | 21 W/m² | - |
| 1778023368 | 22.78° C | 61% | 1015.3 hPa | 0 mm | - | 33 W/m² | - |
| 1778020945 | 23.89° C | 59% | 1015 hPa | 0 mm | - | 82 W/m² | - |
| 1778019730 | 24.44° C | 58% | 1014.7 hPa | 0 mm | - | 66 W/m² | - |
| 1778019428 | 24.44° C | 57% | 1014.9 hPa | 0 mm | - | 81 W/m² | - |
| 1778017612 | 26.11° C | 51% | 1014.3 hPa | 0 mm | - | 264 W/m² | - |
| 1778017309 | 25.56° C | 51% | 1014.6 hPa | 0 mm | - | 274 W/m² | - |
| 1778015491 | 26.67° C | 47% | 1014.6 hPa | 0 mm | - | 364 W/m² | - |
* Rain latest hour (hover to see other rain measurements)
** Current wind speed in m/s (hover to see current wind gust speed)